sensor_id;sensor_type;location;lat;lon;timestamp;temperature;humidity
7192;DHT22;3637;51.494;11.958;2024-01-15T00:00:05;1.80;99.90
7192;DHT22;3637;51.494;11.958;2024-01-15T00:03:08;1.60;99.90
7192;DHT22;3637;51.494;11.958;2024-01-15T00:06:18;2.70;99.90
7192;DHT22;3637;51.494;11.958;2024-01-15T00:09:20;0.80;99.90
7192;DHT22;3637;51.494;11.958;2024-01-15T00:12:23;1.60;99.90
7192;DHT22;3637;51.494;11.958;2024-01-15T00:15:27;1.60;99.90
7192;DHT22;3637;51.494;11.958;2024-01-15T00:18:32;1.60;99.90
7192;DHT22;3637;51.494;11.958;2024-01-15T00:21:37;1.30;99.90
7192;DHT22;3637;51.494;11.958;2024-01-15T00:24:39;1.50;99.90
7192;DHT22;3637;51.494;11.958;2024-01-15T00:27:41;1.70;99.90
7192;DHT22;3637;51.494;11.958;2024-01-15T00:30:45;1.70;99.90
7192;DHT22;3637;51.494;11.958;2024-01-15T00:33:48;1.40;99.90
7192;DHT22;3637;51.494;11.958;2024-01-15T00:45:08;1.60;99.90
7192;DHT22;3637;51.494;11.958;2024-01-15T00:48:30;1.50;99.90
7192;DHT22;3637;51.494;11.958;2024-01-15T00:51:41;2.70;99.90
7192;DHT22;3637;51.494;11.958;2024-01-15T00:54:44;1.20;99.90
7192;DHT22;3637;51.494;11.958;2024-01-15T00:57:52;1.70;99.90
7192;DHT22;3637;51.494;11.958;2024-01-15T01:01:01;1.50;99.90
7192;DHT22;3637;51.494;11.958;2024-01-15T01:04:08;1.60;99.90
7192;DHT22;3637;51.494;11.958;2024-01-15T01:07:13;1.80;99.90
7192;DHT22;3637;51.494;11.958;2024-01-15T01:10:17;1.90;99.90
7192;DHT22;3637;51.494;11.958;2024-01-15T01:13:25;1.80;99.90
7192;DHT22;3637;51.494;11.958;2024-01-15T01:16:32;1.50;99.90
7192;DHT22;3637;51.494;11.958;2024-01-15T01:19:42;1.20;99.90
7192;DHT22;3637;51.494;11.958;2024-01-15T01:22:46;1.60;99.90
7192;DHT22;3637;51.494;11.958;2024-01-15T01:25:52;1.40;99.90
7192;DHT22;3637;51.494;11.958;2024-01-15T01:29:06;1.70;99.90
7192;DHT22;3637;51.494;11.958;2024-01-15T01:32:12;1.50;99.90
7192;DHT22;3637;51.494;11.958;2024-01-15T01:35:15;1.50;99.90
7192;DHT22;3637;51.494;11.958;2024-01-15T01:38:27;1.90;99.90
7192;DHT22;3637;51.494;11.958;2024-01-15T01:41:32;1.40;99.90
7192;DHT22;3637;51.494;11.958;2024-01-15T01:44:49;1.80;99.90
7192;DHT22;3637;51.494;11.958;2024-01-15T01:48:17;1.50;99.90
7192;DHT22;3637;51.494;11.958;2024-01-15T01:51:23;1.40;99.90
7192;DHT22;3637;51.494;11.958;2024-01-15T01:54:29;1.30;99.90
7192;DHT22;3637;51.494;11.958;2024-01-15T01:57:41;1.40;99.90
7192;DHT22;3637;51.494;11.958;2024-01-15T02:00:47;1.30;99.90
7192;DHT22;3637;51.494;11.958;2024-01-15T02:03:53;1.20;99.90
7192;DHT22;3637;51.494;11.958;2024-01-15T02:06:59;1.50;99.90
7192;DHT22;3637;51.494;11.958;2024-01-15T02:10:11;1.20;99.90
7192;DHT22;3637;51.494;11.958;2024-01-15T02:13:19;1.20;99.90
7192;DHT22;3637;51.494;11.958;2024-01-15T02:16:27;1.20;99.90
7192;DHT22;3637;51.494;11.958;2024-01-15T02:19:42;1.20;99.90
7192;DHT22;3637;51.494;11.958;2024-01-15T02:22:48;1.20;99.90
7192;DHT22;3637;51.494;11.958;2024-01-15T02:26:01;1.40;99.90
7192;DHT22;3637;51.494;11.958;2024-01-15T02:29:05;1.30;99.90
7192;DHT22;3637;51.494;11.958;2024-01-15T02:32:09;0.00;99.90
7192;DHT22;3637;51.494;11.958;2024-01-15T02:35:11;1.50;99.90
7192;DHT22;3637;51.494;11.958;2024-01-15T02:38:13;1.00;99.90
7192;DHT22;3637;51.494;11.958;2024-01-15T02:41:21;2.50;99.90
7192;DHT22;3637;51.494;11.958;2024-01-15T02:44:24;1.20;99.90
7192;DHT22;3637;51.494;11.958;2024-01-15T02:47:41;1.00;99.90
7192;DHT22;3637;51.494;11.958;2024-01-15T02:50:44;1.10;99.90
7192;DHT22;3637;51.494;11.958;2024-01-15T02:53:49;1.10;99.90
7192;DHT22;3637;51.494;11.958;2024-01-15T02:56:53;1.00;99.90
7192;DHT22;3637;51.494;11.958;2024-01-15T02:59:55;1.00;99.90
7192;DHT22;3637;51.494;11.958;2024-01-15T03:03:00;1.00;99.90
7192;DHT22;3637;51.494;11.958;2024-01-15T03:06:03;1.00;99.90
7192;DHT22;3637;51.494;11.958;2024-01-15T03:09:12;0.90;99.90
7192;DHT22;3637;51.494;11.958;2024-01-15T03:12:18;0.80;99.90
7192;DHT22;3637;51.494;11.958;2024-01-15T03:15:26;1.70;99.90
7192;DHT22;3637;51.494;11.958;2024-01-15T03:18:33;0.70;99.90
7192;DHT22;3637;51.494;11.958;2024-01-15T03:21:38;0.60;99.90
7192;DHT22;3637;51.494;11.958;2024-01-15T03:24:45;0.50;99.90
7192;DHT22;3637;51.494;11.958;2024-01-15T03:28:05;1.80;99.90
7192;DHT22;3637;51.494;11.958;2024-01-15T03:31:09;0.80;99.90
7192;DHT22;3637;51.494;11.958;2024-01-15T03:34:15;0.90;99.90
7192;DHT22;3637;51.494;11.958;2024-01-15T03:37:20;0.40;99.90
7192;DHT22;3637;51.494;11.958;2024-01-15T03:40:42;0.40;99.90
7192;DHT22;3637;51.494;11.958;2024-01-15T03:44:07;0.40;99.90
7192;DHT22;3637;51.494;11.958;2024-01-15T03:47:11;0.40;99.90
7192;DHT22;3637;51.494;11.958;2024-01-15T03:50:16;0.50;99.90
7192;DHT22;3637;51.494;11.958;2024-01-15T03:53:21;0.90;99.90
7192;DHT22;3637;51.494;11.958;2024-01-15T03:56:37;0.00;99.90
7192;DHT22;3637;51.494;11.958;2024-01-15T03:59:53;0.50;99.90
7192;DHT22;3637;51.494;11.958;2024-01-15T04:02:59;0.50;99.90
7192;DHT22;3637;51.494;11.958;2024-01-15T04:06:01;0.90;99.90
7192;DHT22;3637;51.494;11.958;2024-01-15T04:09:06;0.70;99.90
7192;DHT22;3637;51.494;11.958;2024-01-15T04:12:16;0.80;99.90
7192;DHT22;3637;51.494;11.958;2024-01-15T04:15:22;1.20;99.90
7192;DHT22;3637;51.494;11.958;2024-01-15T04:18:25;0.90;99.90
7192;DHT22;3637;51.494;11.958;2024-01-15T04:21:30;1.50;99.90
7192;DHT22;3637;51.494;11.958;2024-01-15T04:24:36;0.70;99.90
7192;DHT22;3637;51.494;11.958;2024-01-15T04:27:41;0.90;99.90
7192;DHT22;3637;51.494;11.958;2024-01-15T04:30:46;0.30;99.90
7192;DHT22;3637;51.494;11.958;2024-01-15T04:33:48;0.90;99.90
7192;DHT22;3637;51.494;11.958;2024-01-15T04:37:00;1.40;99.90
7192;DHT22;3637;51.494;11.958;2024-01-15T04:40:09;1.40;99.90
7192;DHT22;3637;51.494;11.958;2024-01-15T04:43:17;1.00;99.90
7192;DHT22;3637;51.494;11.958;2024-01-15T04:46:27;1.40;99.90
7192;DHT22;3637;51.494;11.958;2024-01-15T04:49:34;1.00;99.90
7192;DHT22;3637;51.494;11.958;2024-01-15T04:52:39;1.40;99.90
7192;DHT22;3637;51.494;11.958;2024-01-15T04:55:48;1.40;99.90
7192;DHT22;3637;51.494;11.958;2024-01-15T04:58:50;1.10;99.90
7192;DHT22;3637;51.494;11.958;2024-01-15T05:01:55;1.60;99.90
7192;DHT22;3637;51.494;11.958;2024-01-15T05:05:00;1.30;99.90
7192;DHT22;3637;51.494;11.958;2024-01-15T05:08:05;1.30;99.90
7192;DHT22;3637;51.494;11.958;2024-01-15T05:11:19;1.20;99.90
7192;DHT22;3637;51.494;11.958;2024-01-15T05:14:22;1.30;99.90
7192;DHT22;3637;51.494;11.958;2024-01-15T05:17:26;1.20;99.90
7192;DHT22;3637;51.494;11.958;2024-01-15T05:20:32;1.50;99.90
7192;DHT22;3637;51.494;11.958;2024-01-15T05:23:36;2.00;99.90
7192;DHT22;3637;51.494;11.958;2024-01-15T05:26:38;1.30;99.90
7192;DHT22;3637;51.494;11.958;2024-01-15T05:29:40;1.30;99.90
7192;DHT22;3637;51.494;11.958;2024-01-15T05:36:06;1.40;99.90
7192;DHT22;3637;51.494;11.958;2024-01-15T05:39:11;1.40;99.90
7192;DHT22;3637;51.494;11.958;2024-01-15T05:42:32;1.40;99.90
7192;DHT22;3637;51.494;11.958;2024-01-15T05:45:35;1.00;99.90
7192;DHT22;3637;51.494;11.958;2024-01-15T05:48:39;0.80;99.90
7192;DHT22;3637;51.494;11.958;2024-01-15T05:51:44;1.40;99.90
7192;DHT22;3637;51.494;11.958;2024-01-15T05:54:47;1.30;99.90
7192;DHT22;3637;51.494;11.958;2024-01-15T05:57:51;2.00;99.90
7192;DHT22;3637;51.494;11.958;2024-01-15T06:00:56;1.70;99.90
7192;DHT22;3637;51.494;11.958;2024-01-15T06:04:00;1.50;99.90
7192;DHT22;3637;51.494;11.958;2024-01-15T06:07:05;1.80;99.90
7192;DHT22;3637;51.494;11.958;2024-01-15T06:10:10;1.30;99.90
7192;DHT22;3637;51.494;11.958;2024-01-15T06:13:16;1.60;99.90
7192;DHT22;3637;51.494;11.958;2024-01-15T06:16:19;1.80;99.90
7192;DHT22;3637;51.494;11.958;2024-01-15T06:19:26;1.50;99.90
7192;DHT22;3637;51.494;11.958;2024-01-15T06:22:45;1.20;99.90
7192;DHT22;3637;51.494;11.958;2024-01-15T06:25:52;1.80;99.90
7192;DHT22;3637;51.494;11.958;2024-01-15T06:28:58;1.20;99.90
7192;DHT22;3637;51.494;11.958;2024-01-15T06:32:01;1.30;99.90
7192;DHT22;3637;51.494;11.958;2024-01-15T06:35:28;1.30;99.90
7192;DHT22;3637;51.494;11.958;2024-01-15T06:38:33;1.20;99.90
7192;DHT22;3637;51.494;11.958;2024-01-15T06:41:41;1.20;99.90
7192;DHT22;3637;51.494;11.958;2024-01-15T06:44:47;1.20;99.90
7192;DHT22;3637;51.494;11.958;2024-01-15T06:47:50;1.10;99.90
7192;DHT22;3637;51.494;11.958;2024-01-15T06:51:19;1.20;99.90
7192;DHT22;3637;51.494;11.958;2024-01-15T06:54:24;1.20;99.90
7192;DHT22;3637;51.494;11.958;2024-01-15T06:57:34;1.20;99.90
7192;DHT22;3637;51.494;11.958;2024-01-15T07:00:40;1.10;99.90
7192;DHT22;3637;51.494;11.958;2024-01-15T07:03:56;2.50;99.90
7192;DHT22;3637;51.494;11.958;2024-01-15T07:07:06;1.40;99.90
7192;DHT22;3637;51.494;11.958;2024-01-15T07:10:12;1.70;99.90
7192;DHT22;3637;51.494;11.958;2024-01-15T07:13:16;1.20;99.90
7192;DHT22;3637;51.494;11.958;2024-01-15T07:16:40;1.00;99.90
7192;DHT22;3637;51.494;11.958;2024-01-15T07:19:42;1.10;99.90
7192;DHT22;3637;51.494;11.958;2024-01-15T07:22:51;1.50;99.90
7192;DHT22;3637;51.494;11.958;2024-01-15T07:25:58;2.00;99.90
7192;DHT22;3637;51.494;11.958;2024-01-15T07:29:02;1.30;99.90
7192;DHT22;3637;51.494;11.958;2024-01-15T07:32:34;1.70;99.90
7192;DHT22;3637;51.494;11.958;2024-01-15T07:35:41;1.60;99.90
7192;DHT22;3637;51.494;11.958;2024-01-15T07:38:53;0.90;99.90
7192;DHT22;3637;51.494;11.958;2024-01-15T07:42:08;1.50;99.90
7192;DHT22;3637;51.494;11.958;2024-01-15T07:45:28;0.90;99.90
7192;DHT22;3637;51.494;11.958;2024-01-15T07:48:32;0.90;99.90
7192;DHT22;3637;51.494;11.958;2024-01-15T07:51:36;0.90;99.90
7192;DHT22;3637;51.494;11.958;2024-01-15T07:54:49;1.00;99.90
7192;DHT22;3637;51.494;11.958;2024-01-15T07:57:56;0.80;99.90
7192;DHT22;3637;51.494;11.958;2024-01-15T08:01:17;1.60;99.90
7192;DHT22;3637;51.494;11.958;2024-01-15T08:04:27;0.90;99.90
7192;DHT22;3637;51.494;11.958;2024-01-15T08:07:38;0.90;99.90
7192;DHT22;3637;51.494;11.958;2024-01-15T08:10:49;1.00;99.90
7192;DHT22;3637;51.494;11.958;2024-01-15T08:13:52;1.10;99.90
7192;DHT22;3637;51.494;11.958;2024-01-15T08:16:59;2.60;99.90
7192;DHT22;3637;51.494;11.958;2024-01-15T08:20:02;1.20;99.90
7192;DHT22;3637;51.494;11.958;2024-01-15T08:23:06;1.20;99.90
7192;DHT22;3637;51.494;11.958;2024-01-15T08:26:15;1.30;99.90
7192;DHT22;3637;51.494;11.958;2024-01-15T08:29:20;1.60;99.90
7192;DHT22;3637;51.494;11.958;2024-01-15T08:32:35;1.30;99.90
7192;DHT22;3637;51.494;11.958;2024-01-15T08:35:56;1.40;99.90
7192;DHT22;3637;51.494;11.958;2024-01-15T08:39:13;1.40;99.90
7192;DHT22;3637;51.494;11.958;2024-01-15T08:42:19;1.50;99.90
7192;DHT22;3637;51.494;11.958;2024-01-15T08:45:22;1.70;99.90
7192;DHT22;3637;51.494;11.958;2024-01-15T08:48:30;3.30;99.90
7192;DHT22;3637;51.494;11.958;2024-01-15T08:51:32;1.80;99.90
7192;DHT22;3637;51.494;11.958;2024-01-15T08:54:42;1.80;99.90
7192;DHT22;3637;51.494;11.958;2024-01-15T08:57:50;1.70;99.90
7192;DHT22;3637;51.494;11.958;2024-01-15T09:00:54;1.70;99.90
7192;DHT22;3637;51.494;11.958;2024-01-15T09:04:11;1.80;99.90
7192;DHT22;3637;51.494;11.958;2024-01-15T09:07:13;1.90;99.90
7192;DHT22;3637;51.494;11.958;2024-01-15T09:10:40;1.90;99.90
7192;DHT22;3637;51.494;11.958;2024-01-15T09:13:54;2.20;99.90
7192;DHT22;3637;51.494;11.958;2024-01-15T09:17:00;2.30;99.90
7192;DHT22;3637;51.494;11.958;2024-01-15T09:20:12;2.00;99.90
7192;DHT22;3637;51.494;11.958;2024-01-15T09:23:16;2.00;99.90
7192;DHT22;3637;51.494;11.958;2024-01-15T09:26:20;2.10;99.90
7192;DHT22;3637;51.494;11.958;2024-01-15T09:29:31;2.40;99.90
7192;DHT22;3637;51.494;11.958;2024-01-15T09:32:39;3.40;99.90
7192;DHT22;3637;51.494;11.958;2024-01-15T09:35:46;2.70;99.90
7192;DHT22;3637;51.494;11.958;2024-01-15T09:38:49;2.40;99.90
7192;DHT22;3637;51.494;11.958;2024-01-15T09:41:53;2.60;99.90
7192;DHT22;3637;51.494;11.958;2024-01-15T09:45:10;3.00;99.90
7192;DHT22;3637;51.494;11.958;2024-01-15T09:48:12;2.70;99.90
7192;DHT22;3637;51.494;11.958;2024-01-15T09:51:17;3.70;99.90
7192;DHT22;3637;51.494;11.958;2024-01-15T09:54:20;2.60;99.90
7192;DHT22;3637;51.494;11.958;2024-01-15T09:57:22;3.00;99.90
7192;DHT22;3637;51.494;11.958;2024-01-15T10:00:33;3.00;99.90
7192;DHT22;3637;51.494;11.958;2024-01-15T10:03:38;3.00;99.90
7192;DHT22;3637;51.494;11.958;2024-01-15T10:06:45;3.10;99.90
7192;DHT22;3637;51.494;11.958;2024-01-15T10:09:48;2.60;99.90
7192;DHT22;3637;51.494;11.958;2024-01-15T10:12:56;3.10;99.90
7192;DHT22;3637;51.494;11.958;2024-01-15T10:16:03;3.10;99.90
7192;DHT22;3637;51.494;11.958;2024-01-15T10:19:12;3.00;99.90
7192;DHT22;3637;51.494;11.958;2024-01-15T10:22:18;3.20;99.90
7192;DHT22;3637;51.494;11.958;2024-01-15T10:25:23;3.30;99.90
7192;DHT22;3637;51.494;11.958;2024-01-15T10:28:26;3.20;99.90
7192;DHT22;3637;51.494;11.958;2024-01-15T10:31:33;2.70;99.90
7192;DHT22;3637;51.494;11.958;2024-01-15T10:34:37;2.70;99.90
7192;DHT22;3637;51.494;11.958;2024-01-15T10:37:44;3.60;99.90
7192;DHT22;3637;51.494;11.958;2024-01-15T10:40:50;2.50;99.90
7192;DHT22;3637;51.494;11.958;2024-01-15T10:43:54;3.30;99.90
7192;DHT22;3637;51.494;11.958;2024-01-15T10:46:57;3.10;99.90
7192;DHT22;3637;51.494;11.958;2024-01-15T10:50:01;3.20;99.90
7192;DHT22;3637;51.494;11.958;2024-01-15T10:53:03;3.20;99.90
7192;DHT22;3637;51.494;11.958;2024-01-15T10:56:10;3.10;99.90
7192;DHT22;3637;51.494;11.958;2024-01-15T10:59:15;3.30;99.90
7192;DHT22;3637;51.494;11.958;2024-01-15T11:02:22;3.00;99.90
7192;DHT22;3637;51.494;11.958;2024-01-15T11:05:25;3.90;99.90
7192;DHT22;3637;51.494;11.958;2024-01-15T11:08:29;2.80;99.90
7192;DHT22;3637;51.494;11.958;2024-01-15T11:11:37;2.80;99.90
7192;DHT22;3637;51.494;11.958;2024-01-15T11:14:50;3.40;99.90
7192;DHT22;3637;51.494;11.958;2024-01-15T11:18:01;3.40;99.90
7192;DHT22;3637;51.494;11.958;2024-01-15T11:21:25;4.10;99.90
7192;DHT22;3637;51.494;11.958;2024-01-15T11:24:35;3.20;99.90
7192;DHT22;3637;51.494;11.958;2024-01-15T11:27:41;3.60;99.90
7192;DHT22;3637;51.494;11.958;2024-01-15T11:30:47;2.80;99.90
7192;DHT22;3637;51.494;11.958;2024-01-15T11:33:52;3.20;99.90
7192;DHT22;3637;51.494;11.958;2024-01-15T11:37:02;3.40;99.90
7192;DHT22;3637;51.494;11.958;2024-01-15T11:40:05;3.40;99.90
7192;DHT22;3637;51.494;11.958;2024-01-15T11:43:22;3.70;99.90
7192;DHT22;3637;51.494;11.958;2024-01-15T11:46:26;4.20;99.90
7192;DHT22;3637;51.494;11.958;2024-01-15T11:53:33;5.50;99.90
7192;DHT22;3637;51.494;11.958;2024-01-15T11:56:40;4.90;99.90
7192;DHT22;3637;51.494;11.958;2024-01-15T11:59:44;4.60;99.90
7192;DHT22;3637;51.494;11.958;2024-01-15T12:02:48;4.00;99.90
7192;DHT22;3637;51.494;11.958;2024-01-15T12:05:56;3.90;99.90
7192;DHT22;3637;51.494;11.958;2024-01-15T12:09:06;3.30;99.90
7192;DHT22;3637;51.494;11.958;2024-01-15T12:12:21;3.30;99.90
7192;DHT22;3637;51.494;11.958;2024-01-15T12:15:29;3.20;99.90
7192;DHT22;3637;51.494;11.958;2024-01-15T12:18:32;3.70;99.90
7192;DHT22;3637;51.494;11.958;2024-01-15T12:21:39;3.00;99.90
7192;DHT22;3637;51.494;11.958;2024-01-15T12:24:41;3.40;99.90
7192;DHT22;3637;51.494;11.958;2024-01-15T12:27:45;3.30;99.90
7192;DHT22;3637;51.494;11.958;2024-01-15T12:30:49;4.20;99.90
7192;DHT22;3637;51.494;11.958;2024-01-15T12:34:11;3.30;99.90
7192;DHT22;3637;51.494;11.958;2024-01-15T12:37:36;3.00;99.90
7192;DHT22;3637;51.494;11.958;2024-01-15T12:40:43;2.80;99.90
7192;DHT22;3637;51.494;11.958;2024-01-15T12:43:49;3.00;99.90
7192;DHT22;3637;51.494;11.958;2024-01-15T12:46:53;3.10;99.90
7192;DHT22;3637;51.494;11.958;2024-01-15T12:49:57;4.30;99.90
7192;DHT22;3637;51.494;11.958;2024-01-15T12:53:05;3.10;99.90
7192;DHT22;3637;51.494;11.958;2024-01-15T12:56:11;3.80;99.90
7192;DHT22;3637;51.494;11.958;2024-01-15T12:59:17;3.20;99.90
7192;DHT22;3637;51.494;11.958;2024-01-15T13:02:22;3.50;99.90
7192;DHT22;3637;51.494;11.958;2024-01-15T13:05:27;3.50;99.90
7192;DHT22;3637;51.494;11.958;2024-01-15T13:08:31;3.00;99.90
7192;DHT22;3637;51.494;11.958;2024-01-15T13:11:36;2.90;99.90
7192;DHT22;3637;51.494;11.958;2024-01-15T13:14:39;3.90;99.90
7192;DHT22;3637;51.494;11.958;2024-01-15T13:17:48;3.10;99.90
7192;DHT22;3637;51.494;11.958;2024-01-15T13:20:50;4.10;99.90
7192;DHT22;3637;51.494;11.958;2024-01-15T13:23:54;2.80;99.90
7192;DHT22;3637;51.494;11.958;2024-01-15T13:26:59;2.70;99.90
7192;DHT22;3637;51.494;11.958;2024-01-15T13:30:05;2.80;99.90
7192;DHT22;3637;51.494;11.958;2024-01-15T13:33:09;2.70;99.90
7192;DHT22;3637;51.494;11.958;2024-01-15T13:36:11;3.00;99.90
7192;DHT22;3637;51.494;11.958;2024-01-15T13:39:16;3.50;99.90
7192;DHT22;3637;51.494;11.958;2024-01-15T13:42:21;2.80;99.90
7192;DHT22;3637;51.494;11.958;2024-01-15T13:45:24;2.80;99.90
7192;DHT22;3637;51.494;11.958;2024-01-15T13:48:26;3.10;99.90
7192;DHT22;3637;51.494;11.958;2024-01-15T13:51:29;2.80;99.90
7192;DHT22;3637;51.494;11.958;2024-01-15T13:54:32;2.50;99.90
7192;DHT22;3637;51.494;11.958;2024-01-15T13:57:37;2.70;99.90
7192;DHT22;3637;51.494;11.958;2024-01-15T14:00:39;3.90;99.90
7192;DHT22;3637;51.494;11.958;2024-01-15T14:03:43;2.80;99.90
7192;DHT22;3637;51.494;11.958;2024-01-15T14:06:47;3.10;99.90
7192;DHT22;3637;51.494;11.958;2024-01-15T14:09:55;3.10;99.90
7192;DHT22;3637;51.494;11.958;2024-01-15T14:20:01;2.90;99.90
7192;DHT22;3637;51.494;11.958;2024-01-15T14:21:14;3.30;99.90
7192;DHT22;3637;51.494;11.958;2024-01-15T14:24:48;2.90;99.90
7192;DHT22;3637;51.494;11.958;2024-01-15T14:27:59;2.80;99.90
7192;DHT22;3637;51.494;11.958;2024-01-15T14:31:03;2.30;99.90
7192;DHT22;3637;51.494;11.958;2024-01-15T14:34:06;2.70;99.90
7192;DHT22;3637;51.494;11.958;2024-01-15T14:37:18;2.80;99.90
7192;DHT22;3637;51.494;11.958;2024-01-15T14:40:21;3.80;99.90
7192;DHT22;3637;51.494;11.958;2024-01-15T14:43:42;2.90;99.90
7192;DHT22;3637;51.494;11.958;2024-01-15T14:46:46;2.50;99.90
7192;DHT22;3637;51.494;11.958;2024-01-15T14:50:16;3.20;99.90
7192;DHT22;3637;51.494;11.958;2024-01-15T14:53:19;2.80;99.90
7192;DHT22;3637;51.494;11.958;2024-01-15T14:56:23;2.90;99.90
7192;DHT22;3637;51.494;11.958;2024-01-15T14:59:35;2.80;99.90
7192;DHT22;3637;51.494;11.958;2024-01-15T15:02:41;2.70;99.90
7192;DHT22;3637;51.494;11.958;2024-01-15T15:05:43;2.80;99.90
7192;DHT22;3637;51.494;11.958;2024-01-15T15:08:46;2.80;99.90
7192;DHT22;3637;51.494;11.958;2024-01-15T15:11:55;2.50;99.90
7192;DHT22;3637;51.494;11.958;2024-01-15T15:15:21;3.00;99.90
7192;DHT22;3637;51.494;11.958;2024-01-15T15:18:26;2.40;99.90
7192;DHT22;3637;51.494;11.958;2024-01-15T15:21:39;1.90;99.90
7192;DHT22;3637;51.494;11.958;2024-01-15T15:24:43;3.40;99.90
7192;DHT22;3637;51.494;11.958;2024-01-15T15:27:49;2.40;99.90
7192;DHT22;3637;51.494;11.958;2024-01-15T15:30:53;2.10;99.90
7192;DHT22;3637;51.494;11.958;2024-01-15T15:33:56;2.30;99.90
7192;DHT22;3637;51.494;11.958;2024-01-15T15:36:58;2.70;99.90
7192;DHT22;3637;51.494;11.958;2024-01-15T15:40:02;2.60;99.90
7192;DHT22;3637;51.494;11.958;2024-01-15T15:43:05;2.20;99.90
7192;DHT22;3637;51.494;11.958;2024-01-15T15:46:15;2.20;99.90
7192;DHT22;3637;51.494;11.958;2024-01-15T15:49:21;2.10;99.90
7192;DHT22;3637;51.494;11.958;2024-01-15T15:52:24;2.40;99.90
7192;DHT22;3637;51.494;11.958;2024-01-15T15:55:27;2.70;99.90
7192;DHT22;3637;51.494;11.958;2024-01-15T15:58:32;2.00;99.90
7192;DHT22;3637;51.494;11.958;2024-01-15T16:01:37;2.10;99.90
7192;DHT22;3637;51.494;11.958;2024-01-15T16:04:48;2.00;99.90
7192;DHT22;3637;51.494;11.958;2024-01-15T16:07:53;2.00;99.90
7192;DHT22;3637;51.494;11.958;2024-01-15T16:11:01;2.30;99.90
7192;DHT22;3637;51.494;11.958;2024-01-15T16:14:09;2.60;99.90
7192;DHT22;3637;51.494;11.958;2024-01-15T16:17:13;1.60;99.90
7192;DHT22;3637;51.494;11.958;2024-01-15T16:20:16;2.20;99.90
7192;DHT22;3637;51.494;11.958;2024-01-15T16:23:20;2.00;99.90
7192;DHT22;3637;51.494;11.958;2024-01-15T16:26:27;2.00;99.90
7192;DHT22;3637;51.494;11.958;2024-01-15T16:29:30;1.90;99.90
7192;DHT22;3637;51.494;11.958;2024-01-15T16:32:34;2.10;99.90
7192;DHT22;3637;51.494;11.958;2024-01-15T16:35:38;1.90;99.90
7192;DHT22;3637;51.494;11.958;2024-01-15T16:38:44;2.10;99.90
7192;DHT22;3637;51.494;11.958;2024-01-15T16:41:52;2.20;99.90
7192;DHT22;3637;51.494;11.958;2024-01-15T16:44:55;2.00;99.90
7192;DHT22;3637;51.494;11.958;2024-01-15T16:48:00;2.50;99.90
7192;DHT22;3637;51.494;11.958;2024-01-15T16:51:08;2.30;99.90
7192;DHT22;3637;51.494;11.958;2024-01-15T16:54:10;2.10;99.90
7192;DHT22;3637;51.494;11.958;2024-01-15T16:57:13;2.10;99.90
7192;DHT22;3637;51.494;11.958;2024-01-15T17:00:16;2.70;99.90
7192;DHT22;3637;51.494;11.958;2024-01-15T17:03:32;2.00;99.90
7192;DHT22;3637;51.494;11.958;2024-01-15T17:06:47;2.00;99.90
7192;DHT22;3637;51.494;11.958;2024-01-15T17:09:49;2.00;99.90
7192;DHT22;3637;51.494;11.958;2024-01-15T17:13:00;2.00;99.90
7192;DHT22;3637;51.494;11.958;2024-01-15T17:16:10;2.00;99.90
7192;DHT22;3637;51.494;11.958;2024-01-15T17:19:13;2.00;99.90
7192;DHT22;3637;51.494;11.958;2024-01-15T17:22:22;2.00;99.90
7192;DHT22;3637;51.494;11.958;2024-01-15T17:25:25;2.70;99.90
7192;DHT22;3637;51.494;11.958;2024-01-15T17:28:29;2.00;99.90
7192;DHT22;3637;51.494;11.958;2024-01-15T17:31:34;2.00;99.90
7192;DHT22;3637;51.494;11.958;2024-01-15T17:34:52;2.10;99.90
7192;DHT22;3637;51.494;11.958;2024-01-15T17:38:02;2.00;99.90
7192;DHT22;3637;51.494;11.958;2024-01-15T17:41:05;2.40;99.90
7192;DHT22;3637;51.494;11.958;2024-01-15T17:44:06;2.00;99.90
7192;DHT22;3637;51.494;11.958;2024-01-15T17:47:12;2.00;99.90
7192;DHT22;3637;51.494;11.958;2024-01-15T17:50:18;2.90;99.90
7192;DHT22;3637;51.494;11.958;2024-01-15T17:53:45;1.80;99.90
7192;DHT22;3637;51.494;11.958;2024-01-15T17:56:53;1.90;99.90
7192;DHT22;3637;51.494;11.958;2024-01-15T17:59:57;1.90;99.90
7192;DHT22;3637;51.494;11.958;2024-01-15T18:03:02;2.40;99.90
7192;DHT22;3637;51.494;11.958;2024-01-15T18:06:06;1.90;99.90
7192;DHT22;3637;51.494;11.958;2024-01-15T18:09:16;1.90;99.90
7192;DHT22;3637;51.494;11.958;2024-01-15T18:12:20;2.00;99.90
7192;DHT22;3637;51.494;11.958;2024-01-15T18:15:22;1.90;99.90
7192;DHT22;3637;51.494;11.958;2024-01-15T18:19:09;2.00;99.90
7192;DHT22;3637;51.494;11.958;2024-01-15T18:22:00;2.10;99.90
7192;DHT22;3637;51.494;11.958;2024-01-15T18:25:05;3.20;99.90
7192;DHT22;3637;51.494;11.958;2024-01-15T18:28:15;2.00;99.90
7192;DHT22;3637;51.494;11.958;2024-01-15T18:31:33;1.90;99.90
7192;DHT22;3637;51.494;11.958;2024-01-15T18:38:15;2.10;99.90
7192;DHT22;3637;51.494;11.958;2024-01-15T18:41:26;2.40;99.90
7192;DHT22;3637;51.494;11.958;2024-01-15T18:44:34;2.00;99.90
7192;DHT22;3637;51.494;11.958;2024-01-15T18:47:50;1.60;99.90
7192;DHT22;3637;51.494;11.958;2024-01-15T18:51:07;2.30;99.90
7192;DHT22;3637;51.494;11.958;2024-01-15T18:54:15;1.80;99.90
7192;DHT22;3637;51.494;11.958;2024-01-15T18:57:21;1.80;99.90
7192;DHT22;3637;51.494;11.958;2024-01-15T19:00:36;1.80;99.90
7192;DHT22;3637;51.494;11.958;2024-01-15T19:04:00;1.70;99.90
7192;DHT22;3637;51.494;11.958;2024-01-15T19:07:18;1.40;99.90
7192;DHT22;3637;51.494;11.958;2024-01-15T19:10:46;1.70;99.90
7192;DHT22;3637;51.494;11.958;2024-01-15T19:14:06;1.30;99.90
7192;DHT22;3637;51.494;11.958;2024-01-15T19:17:10;1.60;99.90
7192;DHT22;3637;51.494;11.958;2024-01-15T19:20:18;1.40;99.90
7192;DHT22;3637;51.494;11.958;2024-01-15T19:23:32;1.70;99.90
7192;DHT22;3637;51.494;11.958;2024-01-15T19:26:51;2.20;99.90
7192;DHT22;3637;51.494;11.958;2024-01-15T19:30:10;1.60;99.90
7192;DHT22;3637;51.494;11.958;2024-01-15T19:37:06;1.40;99.90
7192;DHT22;3637;51.494;11.958;2024-01-15T19:40:20;2.30;99.90
7192;DHT22;3637;51.494;11.958;2024-01-15T19:43:27;1.30;99.90
7192;DHT22;3637;51.494;11.958;2024-01-15T19:46:32;1.30;99.90
7192;DHT22;3637;51.494;11.958;2024-01-15T19:49:36;1.20;99.90
7192;DHT22;3637;51.494;11.958;2024-01-15T19:52:49;1.40;99.90
7192;DHT22;3637;51.494;11.958;2024-01-15T19:55:51;2.10;99.90
7192;DHT22;3637;51.494;11.958;2024-01-15T19:58:57;1.30;99.90
7192;DHT22;3637;51.494;11.958;2024-01-15T20:02:07;1.30;99.90
7192;DHT22;3637;51.494;11.958;2024-01-15T20:05:14;1.20;99.90
7192;DHT22;3637;51.494;11.958;2024-01-15T20:08:26;1.00;99.90
7192;DHT22;3637;51.494;11.958;2024-01-15T20:11:28;1.30;99.90
7192;DHT22;3637;51.494;11.958;2024-01-15T20:14:37;1.40;99.90
7192;DHT22;3637;51.494;11.958;2024-01-15T20:17:41;1.40;99.90
7192;DHT22;3637;51.494;11.958;2024-01-15T20:20:49;1.40;99.90
7192;DHT22;3637;51.494;11.958;2024-01-15T20:23:53;1.40;99.90
7192;DHT22;3637;51.494;11.958;2024-01-15T20:27:01;1.40;99.90
7192;DHT22;3637;51.494;11.958;2024-01-15T20:30:09;1.40;99.90
7192;DHT22;3637;51.494;11.958;2024-01-15T20:33:19;1.30;99.90
7192;DHT22;3637;51.494;11.958;2024-01-15T20:36:25;1.30;99.90
7192;DHT22;3637;51.494;11.958;2024-01-15T20:39:32;1.30;99.90
7192;DHT22;3637;51.494;11.958;2024-01-15T20:42:40;1.50;99.90
7192;DHT22;3637;51.494;11.958;2024-01-15T20:45:46;1.50;99.90
7192;DHT22;3637;51.494;11.958;2024-01-15T20:48:48;1.50;99.90
7192;DHT22;3637;51.494;11.958;2024-01-15T20:51:57;1.60;99.90